sensor_id;sensor_type;location;lat;lon;timestamp;P1;durP1;ratioP1;P2;durP2;ratioP2
77111;SDS011;66064;50.226;14.344;2023-07-08T00:01:10;6.90;;;6.30;;
77111;SDS011;66064;50.226;14.344;2023-07-08T00:03:47;6.88;;;6.38;;
77111;SDS011;66064;50.226;14.344;2023-07-08T00:06:18;6.47;;;5.93;;
77111;SDS011;66064;50.226;14.344;2023-07-08T00:11:15;4.85;;;4.35;;
77111;SDS011;66064;50.226;14.344;2023-07-08T00:13:44;6.20;;;5.70;;
77111;SDS011;66064;50.226;14.344;2023-07-08T00:16:12;5.18;;;4.75;;
77111;SDS011;66064;50.226;14.344;2023-07-08T00:18:47;6.32;;;5.60;;
77111;SDS011;66064;50.226;14.344;2023-07-08T00:21:16;5.50;;;5.07;;
77111;SDS011;66064;50.226;14.344;2023-07-08T00:23:44;5.85;;;5.45;;
77111;SDS011;66064;50.226;14.344;2023-07-08T00:26:44;5.10;;;4.20;;
77111;SDS011;66064;50.226;14.344;2023-07-08T00:29:12;7.13;;;6.43;;
77111;SDS011;66064;50.226;14.344;2023-07-08T00:31:44;5.72;;;3.50;;
77111;SDS011;66064;50.226;14.344;2023-07-08T00:34:10;6.40;;;5.85;;
77111;SDS011;66064;50.226;14.344;2023-07-08T00:36:36;5.70;;;5.28;;
77111;SDS011;66064;50.226;14.344;2023-07-08T00:39:04;6.10;;;5.68;;
77111;SDS011;66064;50.226;14.344;2023-07-08T00:41:39;7.32;;;4.97;;
77111;SDS011;66064;50.226;14.344;2023-07-08T00:46:42;4.88;;;4.47;;
77111;SDS011;66064;50.226;14.344;2023-07-08T00:52:20;6.68;;;6.15;;
77111;SDS011;66064;50.226;14.344;2023-07-08T00:55:01;5.32;;;4.72;;
77111;SDS011;66064;50.226;14.344;2023-07-08T00:57:35;4.75;;;4.35;;
77111;SDS011;66064;50.226;14.344;2023-07-08T01:00:05;7.72;;;5.80;;
77111;SDS011;66064;50.226;14.344;2023-07-08T01:02:36;5.40;;;4.25;;
77111;SDS011;66064;50.226;14.344;2023-07-08T01:05:15;5.93;;;4.93;;
77111;SDS011;66064;50.226;14.344;2023-07-08T01:07:45;5.07;;;4.68;;
77111;SDS011;66064;50.226;14.344;2023-07-08T01:10:20;6.45;;;5.95;;
77111;SDS011;66064;50.226;14.344;2023-07-08T01:12:54;7.38;;;6.25;;
77111;SDS011;66064;50.226;14.344;2023-07-08T01:15:27;6.93;;;6.50;;
77111;SDS011;66064;50.226;14.344;2023-07-08T01:17:58;6.78;;;6.15;;
77111;SDS011;66064;50.226;14.344;2023-07-08T01:20:25;6.20;;;5.78;;
77111;SDS011;66064;50.226;14.344;2023-07-08T01:22:51;7.35;;;6.85;;
77111;SDS011;66064;50.226;14.344;2023-07-08T01:25:17;7.68;;;7.18;;
77111;SDS011;66064;50.226;14.344;2023-07-08T01:27:45;7.70;;;7.10;;
77111;SDS011;66064;50.226;14.344;2023-07-08T01:30:14;7.30;;;6.80;;
77111;SDS011;66064;50.226;14.344;2023-07-08T01:32:43;7.60;;;6.43;;
77111;SDS011;66064;50.226;14.344;2023-07-08T01:35:15;7.65;;;7.13;;
77111;SDS011;66064;50.226;14.344;2023-07-08T01:37:52;7.55;;;6.88;;
77111;SDS011;66064;50.226;14.344;2023-07-08T01:40:26;6.95;;;6.35;;
77111;SDS011;66064;50.226;14.344;2023-07-08T01:43:01;9.70;;;8.95;;
77111;SDS011;66064;50.226;14.344;2023-07-08T01:45:34;7.50;;;6.90;;
77111;SDS011;66064;50.226;14.344;2023-07-08T01:48:07;6.97;;;6.20;;
77111;SDS011;66064;50.226;14.344;2023-07-08T01:50:38;6.88;;;6.25;;
77111;SDS011;66064;50.226;14.344;2023-07-08T01:53:18;6.57;;;6.07;;
77111;SDS011;66064;50.226;14.344;2023-07-08T01:55:47;6.72;;;5.97;;
77111;SDS011;66064;50.226;14.344;2023-07-08T01:58:13;6.28;;;5.82;;
77111;SDS011;66064;50.226;14.344;2023-07-08T02:00:39;9.10;;;8.40;;
77111;SDS011;66064;50.226;14.344;2023-07-08T02:03:06;10.60;;;7.97;;
77111;SDS011;66064;50.226;14.344;2023-07-08T02:05:33;8.88;;;7.93;;
77111;SDS011;66064;50.226;14.344;2023-07-08T02:07:58;8.40;;;7.60;;
77111;SDS011;66064;50.226;14.344;2023-07-08T02:10:25;8.35;;;7.75;;
77111;SDS011;66064;50.226;14.344;2023-07-08T02:12:51;6.50;;;6.05;;
77111;SDS011;66064;50.226;14.344;2023-07-08T02:15:17;7.80;;;7.18;;
77111;SDS011;66064;50.226;14.344;2023-07-08T02:17:43;7.35;;;6.85;;
77111;SDS011;66064;50.226;14.344;2023-07-08T02:20:09;8.18;;;7.47;;
77111;SDS011;66064;50.226;14.344;2023-07-08T02:22:36;7.80;;;7.20;;
77111;SDS011;66064;50.226;14.344;2023-07-08T02:25:02;8.00;;;6.30;;
77111;SDS011;66064;50.226;14.344;2023-07-08T02:27:29;5.03;;;4.43;;
77111;SDS011;66064;50.226;14.344;2023-07-08T02:29:55;8.57;;;7.75;;
77111;SDS011;66064;50.226;14.344;2023-07-08T02:32:23;8.25;;;7.28;;
77111;SDS011;66064;50.226;14.344;2023-07-08T02:34:50;7.65;;;7.10;;
77111;SDS011;66064;50.226;14.344;2023-07-08T02:37:18;8.93;;;8.13;;
77111;SDS011;66064;50.226;14.344;2023-07-08T02:39:44;7.82;;;7.32;;
77111;SDS011;66064;50.226;14.344;2023-07-08T02:42:10;8.13;;;7.50;;
77111;SDS011;66064;50.226;14.344;2023-07-08T02:44:37;8.73;;;8.15;;
77111;SDS011;66064;50.226;14.344;2023-07-08T02:47:04;9.13;;;8.45;;
77111;SDS011;66064;50.226;14.344;2023-07-08T02:49:30;7.10;;;6.60;;
77111;SDS011;66064;50.226;14.344;2023-07-08T02:51:57;7.82;;;7.28;;
77111;SDS011;66064;50.226;14.344;2023-07-08T02:54:23;8.23;;;7.63;;
77111;SDS011;66064;50.226;14.344;2023-07-08T02:56:49;8.20;;;7.57;;
77111;SDS011;66064;50.226;14.344;2023-07-08T02:59:17;8.95;;;8.18;;
77111;SDS011;66064;50.226;14.344;2023-07-08T03:01:43;8.35;;;7.70;;
77111;SDS011;66064;50.226;14.344;2023-07-08T03:04:12;7.28;;;6.82;;
77111;SDS011;66064;50.226;14.344;2023-07-08T03:06:41;6.70;;;6.30;;
77111;SDS011;66064;50.226;14.344;2023-07-08T03:11:35;5.80;;;5.40;;
77111;SDS011;66064;50.226;14.344;2023-07-08T03:14:02;7.13;;;6.35;;
77111;SDS011;66064;50.226;14.344;2023-07-08T03:16:28;7.13;;;6.65;;
77111;SDS011;66064;50.226;14.344;2023-07-08T03:19:01;8.57;;;7.47;;
77111;SDS011;66064;50.226;14.344;2023-07-08T03:21:28;7.07;;;6.57;;
77111;SDS011;66064;50.226;14.344;2023-07-08T03:23:55;6.75;;;6.28;;
77111;SDS011;66064;50.226;14.344;2023-07-08T03:26:22;8.60;;;8.00;;
77111;SDS011;66064;50.226;14.344;2023-07-08T03:28:51;9.20;;;8.50;;
77111;SDS011;66064;50.226;14.344;2023-07-08T03:31:19;8.70;;;8.02;;
77111;SDS011;66064;50.226;14.344;2023-07-08T03:33:46;8.95;;;8.30;;
77111;SDS011;66064;50.226;14.344;2023-07-08T03:36:15;6.50;;;6.07;;
77111;SDS011;66064;50.226;14.344;2023-07-08T03:38:56;7.43;;;6.68;;
77111;SDS011;66064;50.226;14.344;2023-07-08T03:41:23;8.77;;;8.18;;
77111;SDS011;66064;50.226;14.344;2023-07-08T03:43:51;9.23;;;8.63;;
77111;SDS011;66064;50.226;14.344;2023-07-08T03:46:17;8.90;;;8.02;;
77111;SDS011;66064;50.226;14.344;2023-07-08T03:48:45;7.70;;;7.20;;
77111;SDS011;66064;50.226;14.344;2023-07-08T03:51:17;7.45;;;6.85;;
77111;SDS011;66064;50.226;14.344;2023-07-08T03:53:48;6.47;;;5.28;;
77111;SDS011;66064;50.226;14.344;2023-07-08T03:56:14;7.32;;;6.70;;
77111;SDS011;66064;50.226;14.344;2023-07-08T03:58:40;8.70;;;7.80;;
77111;SDS011;66064;50.226;14.344;2023-07-08T04:01:17;6.10;;;5.60;;
77111;SDS011;66064;50.226;14.344;2023-07-08T04:03:46;7.63;;;7.13;;
77111;SDS011;66064;50.226;14.344;2023-07-08T04:06:14;8.27;;;7.78;;
77111;SDS011;66064;50.226;14.344;2023-07-08T04:08:42;8.95;;;7.10;;
77111;SDS011;66064;50.226;14.344;2023-07-08T04:11:12;6.93;;;6.43;;
77111;SDS011;66064;50.226;14.344;2023-07-08T04:13:42;7.38;;;6.60;;
77111;SDS011;66064;50.226;14.344;2023-07-08T04:16:11;7.57;;;7.07;;
77111;SDS011;66064;50.226;14.344;2023-07-08T04:18:43;8.70;;;8.10;;
77111;SDS011;66064;50.226;14.344;2023-07-08T04:21:09;7.70;;;7.10;;
77111;SDS011;66064;50.226;14.344;2023-07-08T04:23:35;7.78;;;7.25;;
77111;SDS011;66064;50.226;14.344;2023-07-08T04:26:01;6.47;;;5.95;;
77111;SDS011;66064;50.226;14.344;2023-07-08T04:28:28;6.70;;;6.20;;
77111;SDS011;66064;50.226;14.344;2023-07-08T04:30:54;7.90;;;7.22;;
77111;SDS011;66064;50.226;14.344;2023-07-08T04:33:20;7.35;;;6.70;;
77111;SDS011;66064;50.226;14.344;2023-07-08T04:35:46;7.07;;;6.38;;
77111;SDS011;66064;50.226;14.344;2023-07-08T04:38:16;7.32;;;6.10;;
77111;SDS011;66064;50.226;14.344;2023-07-08T04:40:44;6.45;;;5.90;;
77111;SDS011;66064;50.226;14.344;2023-07-08T04:43:10;5.15;;;4.72;;
77111;SDS011;66064;50.226;14.344;2023-07-08T04:45:37;5.65;;;5.05;;
77111;SDS011;66064;50.226;14.344;2023-07-08T04:48:05;5.45;;;4.85;;
77111;SDS011;66064;50.226;14.344;2023-07-08T04:50:41;6.07;;;5.47;;
77111;SDS011;66064;50.226;14.344;2023-07-08T04:53:09;6.40;;;4.70;;
77111;SDS011;66064;50.226;14.344;2023-07-08T04:55:36;5.47;;;4.85;;
77111;SDS011;66064;50.226;14.344;2023-07-08T04:58:05;4.85;;;4.38;;
77111;SDS011;66064;50.226;14.344;2023-07-08T05:00:31;8.93;;;4.93;;
77111;SDS011;66064;50.226;14.344;2023-07-08T05:02:57;6.32;;;4.13;;
77111;SDS011;66064;50.226;14.344;2023-07-08T05:05:23;5.47;;;4.15;;
77111;SDS011;66064;50.226;14.344;2023-07-08T05:07:50;5.03;;;3.90;;
77111;SDS011;66064;50.226;14.344;2023-07-08T05:10:16;7.75;;;4.25;;
77111;SDS011;66064;50.226;14.344;2023-07-08T05:12:43;5.75;;;3.80;;
77111;SDS011;66064;50.226;14.344;2023-07-08T05:15:09;8.35;;;3.60;;
77111;SDS011;66064;50.226;14.344;2023-07-08T05:17:37;8.23;;;4.32;;
77111;SDS011;66064;50.226;14.344;2023-07-08T05:20:05;4.38;;;3.63;;
77111;SDS011;66064;50.226;14.344;2023-07-08T05:22:33;6.28;;;3.17;;
77111;SDS011;66064;50.226;14.344;2023-07-08T05:24:59;3.60;;;2.75;;
77111;SDS011;66064;50.226;14.344;2023-07-08T05:27:26;4.35;;;2.80;;
77111;SDS011;66064;50.226;14.344;2023-07-08T05:29:53;3.25;;;2.40;;
77111;SDS011;66064;50.226;14.344;2023-07-08T05:32:19;4.82;;;3.45;;
77111;SDS011;66064;50.226;14.344;2023-07-08T05:34:46;3.08;;;2.53;;
77111;SDS011;66064;50.226;14.344;2023-07-08T05:37:13;3.63;;;2.80;;
77111;SDS011;66064;50.226;14.344;2023-07-08T05:39:39;4.95;;;3.20;;
77111;SDS011;66064;50.226;14.344;2023-07-08T05:42:06;3.30;;;2.65;;
77111;SDS011;66064;50.226;14.344;2023-07-08T05:44:32;2.85;;;2.08;;
77111;SDS011;66064;50.226;14.344;2023-07-08T05:46:58;2.83;;;2.40;;
77111;SDS011;66064;50.226;14.344;2023-07-08T05:49:24;4.25;;;2.88;;
77111;SDS011;66064;50.226;14.344;2023-07-08T05:51:50;4.03;;;2.47;;
77111;SDS011;66064;50.226;14.344;2023-07-08T05:54:16;4.68;;;2.72;;
77111;SDS011;66064;50.226;14.344;2023-07-08T05:56:43;3.60;;;2.50;;
77111;SDS011;66064;50.226;14.344;2023-07-08T05:59:08;3.83;;;2.60;;
77111;SDS011;66064;50.226;14.344;2023-07-08T06:01:35;4.88;;;2.55;;
77111;SDS011;66064;50.226;14.344;2023-07-08T06:04:01;3.45;;;2.53;;
77111;SDS011;66064;50.226;14.344;2023-07-08T06:06:27;3.90;;;2.60;;
77111;SDS011;66064;50.226;14.344;2023-07-08T06:08:53;2.88;;;2.20;;
77111;SDS011;66064;50.226;14.344;2023-07-08T06:11:20;3.50;;;2.40;;
77111;SDS011;66064;50.226;14.344;2023-07-08T06:13:47;3.83;;;2.45;;
77111;SDS011;66064;50.226;14.344;2023-07-08T06:16:14;3.85;;;2.55;;
77111;SDS011;66064;50.226;14.344;2023-07-08T06:18:40;5.75;;;2.58;;
77111;SDS011;66064;50.226;14.344;2023-07-08T06:21:06;3.78;;;2.28;;
77111;SDS011;66064;50.226;14.344;2023-07-08T06:23:32;3.17;;;2.25;;
77111;SDS011;66064;50.226;14.344;2023-07-08T06:25:58;3.70;;;2.65;;
77111;SDS011;66064;50.226;14.344;2023-07-08T06:28:24;3.10;;;2.20;;
77111;SDS011;66064;50.226;14.344;2023-07-08T06:30:50;2.95;;;1.90;;
77111;SDS011;66064;50.226;14.344;2023-07-08T06:33:15;3.45;;;2.45;;
77111;SDS011;66064;50.226;14.344;2023-07-08T06:35:42;2.90;;;2.10;;
77111;SDS011;66064;50.226;14.344;2023-07-08T06:38:08;2.45;;;1.90;;
77111;SDS011;66064;50.226;14.344;2023-07-08T06:40:35;3.55;;;2.50;;
77111;SDS011;66064;50.226;14.344;2023-07-08T06:43:02;3.10;;;2.30;;
77111;SDS011;66064;50.226;14.344;2023-07-08T06:45:28;4.00;;;2.08;;
77111;SDS011;66064;50.226;14.344;2023-07-08T06:47:54;3.05;;;2.15;;
77111;SDS011;66064;50.226;14.344;2023-07-08T06:50:20;2.92;;;2.10;;
77111;SDS011;66064;50.226;14.344;2023-07-08T06:52:46;3.05;;;2.10;;
77111;SDS011;66064;50.226;14.344;2023-07-08T06:55:13;3.72;;;2.00;;
77111;SDS011;66064;50.226;14.344;2023-07-08T06:57:40;3.10;;;2.00;;
77111;SDS011;66064;50.226;14.344;2023-07-08T07:00:06;4.00;;;2.28;;
77111;SDS011;66064;50.226;14.344;2023-07-08T07:02:33;4.78;;;1.80;;
77111;SDS011;66064;50.226;14.344;2023-07-08T07:05:00;4.28;;;2.42;;
77111;SDS011;66064;50.226;14.344;2023-07-08T07:07:27;3.97;;;2.10;;
77111;SDS011;66064;50.226;14.344;2023-07-08T07:09:53;2.88;;;1.85;;
77111;SDS011;66064;50.226;14.344;2023-07-08T07:12:20;2.67;;;1.60;;
77111;SDS011;66064;50.226;14.344;2023-07-08T07:14:46;3.65;;;1.98;;
77111;SDS011;66064;50.226;14.344;2023-07-08T07:17:15;3.20;;;2.28;;
77111;SDS011;66064;50.226;14.344;2023-07-08T07:19:41;5.57;;;2.20;;
77111;SDS011;66064;50.226;14.344;2023-07-08T07:22:07;4.15;;;2.10;;
77111;SDS011;66064;50.226;14.344;2023-07-08T07:24:33;4.05;;;2.13;;
77111;SDS011;66064;50.226;14.344;2023-07-08T07:26:59;2.83;;;1.90;;
77111;SDS011;66064;50.226;14.344;2023-07-08T07:29:25;2.60;;;1.70;;
77111;SDS011;66064;50.226;14.344;2023-07-08T07:31:51;3.00;;;1.90;;
77111;SDS011;66064;50.226;14.344;2023-07-08T07:34:17;2.88;;;1.95;;
77111;SDS011;66064;50.226;14.344;2023-07-08T07:36:43;2.85;;;2.00;;
77111;SDS011;66064;50.226;14.344;2023-07-08T07:39:09;3.00;;;1.70;;
77111;SDS011;66064;50.226;14.344;2023-07-08T07:41:35;2.58;;;1.77;;
77111;SDS011;66064;50.226;14.344;2023-07-08T07:44:01;2.92;;;1.77;;
77111;SDS011;66064;50.226;14.344;2023-07-08T07:46:27;3.22;;;2.10;;
77111;SDS011;66064;50.226;14.344;2023-07-08T07:48:53;3.17;;;1.90;;
77111;SDS011;66064;50.226;14.344;2023-07-08T07:51:19;2.92;;;1.70;;
77111;SDS011;66064;50.226;14.344;2023-07-08T07:53:45;2.67;;;1.70;;
77111;SDS011;66064;50.226;14.344;2023-07-08T07:56:11;3.22;;;1.77;;
77111;SDS011;66064;50.226;14.344;2023-07-08T07:58:37;3.78;;;2.05;;
77111;SDS011;66064;50.226;14.344;2023-07-08T08:01:02;3.05;;;1.70;;
77111;SDS011;66064;50.226;14.344;2023-07-08T08:03:28;3.70;;;1.73;;
77111;SDS011;66064;50.226;14.344;2023-07-08T08:05:55;2.15;;;1.50;;
77111;SDS011;66064;50.226;14.344;2023-07-08T08:08:21;2.30;;;1.73;;
77111;SDS011;66064;50.226;14.344;2023-07-08T08:10:47;3.05;;;1.70;;
77111;SDS011;66064;50.226;14.344;2023-07-08T08:13:14;3.50;;;1.65;;
77111;SDS011;66064;50.226;14.344;2023-07-08T08:15:40;2.75;;;1.60;;
77111;SDS011;66064;50.226;14.344;2023-07-08T08:18:06;2.67;;;1.60;;
77111;SDS011;66064;50.226;14.344;2023-07-08T08:20:32;3.25;;;1.58;;
77111;SDS011;66064;50.226;14.344;2023-07-08T08:22:58;4.22;;;1.58;;
77111;SDS011;66064;50.226;14.344;2023-07-08T08:25:24;2.30;;;1.63;;
77111;SDS011;66064;50.226;14.344;2023-07-08T08:27:50;3.80;;;1.70;;
77111;SDS011;66064;50.226;14.344;2023-07-08T08:30:17;2.80;;;1.80;;
77111;SDS011;66064;50.226;14.344;2023-07-08T08:32:44;4.13;;;1.90;;
77111;SDS011;66064;50.226;14.344;2023-07-08T08:35:10;3.28;;;1.70;;
77111;SDS011;66064;50.226;14.344;2023-07-08T08:37:36;3.17;;;1.73;;
77111;SDS011;66064;50.226;14.344;2023-07-08T08:40:02;2.20;;;1.60;;
77111;SDS011;66064;50.226;14.344;2023-07-08T08:43:02;2.33;;;1.67;;
77111;SDS011;66064;50.226;14.344;2023-07-08T08:45:27;2.30;;;1.48;;
77111;SDS011;66064;50.226;14.344;2023-07-08T08:48:02;2.33;;;1.40;;
77111;SDS011;66064;50.226;14.344;2023-07-08T08:53:01;2.97;;;1.70;;
77111;SDS011;66064;50.226;14.344;2023-07-08T08:55:29;2.75;;;1.60;;
77111;SDS011;66064;50.226;14.344;2023-07-08T09:01:01;4.03;;;1.80;;
77111;SDS011;66064;50.226;14.344;2023-07-08T09:06:25;2.90;;;1.52;;
77111;SDS011;66064;50.226;14.344;2023-07-08T09:08:55;3.55;;;1.80;;
77111;SDS011;66064;50.226;14.344;2023-07-08T09:13:57;4.70;;;1.70;;
77111;SDS011;66064;50.226;14.344;2023-07-08T09:16:29;2.22;;;1.60;;
77111;SDS011;66064;50.226;14.344;2023-07-08T09:19:14;3.20;;;1.60;;
77111;SDS011;66064;50.226;14.344;2023-07-08T09:24:24;3.28;;;1.80;;
77111;SDS011;66064;50.226;14.344;2023-07-08T09:26:57;3.45;;;1.60;;
77111;SDS011;66064;50.226;14.344;2023-07-08T09:29:26;2.40;;;1.50;;
77111;SDS011;66064;50.226;14.344;2023-07-08T09:31:52;2.60;;;1.63;;
77111;SDS011;66064;50.226;14.344;2023-07-08T09:34:21;3.03;;;1.80;;
77111;SDS011;66064;50.226;14.344;2023-07-08T09:36:49;4.18;;;1.90;;
77111;SDS011;66064;50.226;14.344;2023-07-08T09:39:18;3.13;;;1.85;;
77111;SDS011;66064;50.226;14.344;2023-07-08T09:41:46;3.03;;;1.63;;
77111;SDS011;66064;50.226;14.344;2023-07-08T09:46:39;2.55;;;1.55;;
77111;SDS011;66064;50.226;14.344;2023-07-08T09:49:12;2.65;;;1.50;;
77111;SDS011;66064;50.226;14.344;2023-07-08T09:51:43;3.78;;;1.85;;
77111;SDS011;66064;50.226;14.344;2023-07-08T09:54:10;5.40;;;1.90;;
77111;SDS011;66064;50.226;14.344;2023-07-08T09:56:38;2.55;;;1.60;;
77111;SDS011;66064;50.226;14.344;2023-07-08T09:59:12;2.85;;;1.63;;
77111;SDS011;66064;50.226;14.344;2023-07-08T10:01:42;3.10;;;1.80;;
77111;SDS011;66064;50.226;14.344;2023-07-08T10:04:09;4.57;;;1.52;;
77111;SDS011;66064;50.226;14.344;2023-07-08T10:06:36;3.97;;;1.70;;
77111;SDS011;66064;50.226;14.344;2023-07-08T10:09:04;3.53;;;1.77;;
77111;SDS011;66064;50.226;14.344;2023-07-08T10:11:39;2.60;;;1.63;;
77111;SDS011;66064;50.226;14.344;2023-07-08T10:14:11;2.55;;;1.42;;
77111;SDS011;66064;50.226;14.344;2023-07-08T10:16:46;3.10;;;2.00;;
77111;SDS011;66064;50.226;14.344;2023-07-08T10:19:13;3.35;;;1.88;;
77111;SDS011;66064;50.226;14.344;2023-07-08T10:21:47;3.10;;;2.30;;
77111;SDS011;66064;50.226;14.344;2023-07-08T10:24:28;2.83;;;1.70;;
77111;SDS011;66064;50.226;14.344;2023-07-08T10:27:08;2.78;;;1.80;;
77111;SDS011;66064;50.226;14.344;2023-07-08T10:32:28;4.75;;;1.80;;
77111;SDS011;66064;50.226;14.344;2023-07-08T10:35:18;2.85;;;1.85;;
77111;SDS011;66064;50.226;14.344;2023-07-08T10:43:15;3.10;;;1.80;;
77111;SDS011;66064;50.226;14.344;2023-07-08T10:45:56;2.63;;;1.70;;
77111;SDS011;66064;50.226;14.344;2023-07-08T10:56:46;3.50;;;1.90;;
77111;SDS011;66064;50.226;14.344;2023-07-08T11:05:45;4.10;;;1.95;;
77111;SDS011;66064;50.226;14.344;2023-07-08T11:13:50;3.22;;;1.75;;
77111;SDS011;66064;50.226;14.344;2023-07-08T11:19:01;5.03;;;2.10;;
77111;SDS011;66064;50.226;14.344;2023-07-08T11:24:15;4.10;;;2.20;;
77111;SDS011;66064;50.226;14.344;2023-07-08T11:26:54;3.83;;;1.88;;
77111;SDS011;66064;50.226;14.344;2023-07-08T11:32:20;3.05;;;2.00;;
77111;SDS011;66064;50.226;14.344;2023-07-08T11:34:52;2.35;;;1.60;;
77111;SDS011;66064;50.226;14.344;2023-07-08T11:37:20;2.67;;;1.77;;
77111;SDS011;66064;50.226;14.344;2023-07-08T11:39:54;3.30;;;2.08;;
77111;SDS011;66064;50.226;14.344;2023-07-08T11:42:33;2.83;;;1.88;;
77111;SDS011;66064;50.226;14.344;2023-07-08T11:45:08;3.33;;;2.00;;
77111;SDS011;66064;50.226;14.344;2023-07-08T11:47:51;2.92;;;2.00;;
77111;SDS011;66064;50.226;14.344;2023-07-08T11:50:22;3.95;;;2.05;;
77111;SDS011;66064;50.226;14.344;2023-07-08T11:52:51;3.17;;;2.00;;
77111;SDS011;66064;50.226;14.344;2023-07-08T11:55:27;2.85;;;1.83;;
77111;SDS011;66064;50.226;14.344;2023-07-08T11:58:22;3.13;;;2.03;;
77111;SDS011;66064;50.226;14.344;2023-07-08T12:00:59;2.58;;;1.63;;
77111;SDS011;66064;50.226;14.344;2023-07-08T12:03:41;2.60;;;1.77;;
77111;SDS011;66064;50.226;14.344;2023-07-08T12:09:13;3.53;;;2.03;;
77111;SDS011;66064;50.226;14.344;2023-07-08T12:11:59;3.17;;;1.83;;
77111;SDS011;66064;50.226;14.344;2023-07-08T12:14:29;3.42;;;1.98;;
77111;SDS011;66064;50.226;14.344;2023-07-08T12:16:57;4.05;;;2.05;;
77111;SDS011;66064;50.226;14.344;2023-07-08T12:19:24;5.55;;;2.40;;
77111;SDS011;66064;50.226;14.344;2023-07-08T12:21:54;3.45;;;1.98;;
77111;SDS011;66064;50.226;14.344;2023-07-08T12:24:20;3.50;;;2.03;;
77111;SDS011;66064;50.226;14.344;2023-07-08T12:26:52;2.75;;;1.92;;
77111;SDS011;66064;50.226;14.344;2023-07-08T12:29:18;3.10;;;1.92;;
77111;SDS011;66064;50.226;14.344;2023-07-08T12:31:44;5.43;;;2.05;;
77111;SDS011;66064;50.226;14.344;2023-07-08T12:34:14;3.83;;;2.38;;
77111;SDS011;66064;50.226;14.344;2023-07-08T12:36:42;2.75;;;1.70;;
77111;SDS011;66064;50.226;14.344;2023-07-08T12:39:16;2.63;;;1.90;;
77111;SDS011;66064;50.226;14.344;2023-07-08T12:41:44;5.78;;;2.58;;
77111;SDS011;66064;50.226;14.344;2023-07-08T12:44:14;3.13;;;2.00;;
77111;SDS011;66064;50.226;14.344;2023-07-08T12:46:44;3.65;;;2.20;;
77111;SDS011;66064;50.226;14.344;2023-07-08T12:49:12;3.50;;;2.28;;
77111;SDS011;66064;50.226;14.344;2023-07-08T12:54:08;3.15;;;2.20;;
77111;SDS011;66064;50.226;14.344;2023-07-08T12:56:35;2.75;;;1.95;;
77111;SDS011;66064;50.226;14.344;2023-07-08T12:59:02;2.30;;;1.77;;
77111;SDS011;66064;50.226;14.344;2023-07-08T13:01:31;3.03;;;1.83;;
77111;SDS011;66064;50.226;14.344;2023-07-08T13:04:00;3.03;;;2.13;;
77111;SDS011;66064;50.226;14.344;2023-07-08T13:06:29;3.03;;;2.10;;
77111;SDS011;66064;50.226;14.344;2023-07-08T13:09:04;3.97;;;2.13;;
77111;SDS011;66064;50.226;14.344;2023-07-08T13:11:53;3.35;;;2.05;;
77111;SDS011;66064;50.226;14.344;2023-07-08T13:14:21;2.90;;;1.95;;
77111;SDS011;66064;50.226;14.344;2023-07-08T13:16:49;2.85;;;2.05;;
77111;SDS011;66064;50.226;14.344;2023-07-08T13:19:15;3.95;;;2.00;;
77111;SDS011;66064;50.226;14.344;2023-07-08T13:21:42;2.95;;;2.22;;
77111;SDS011;66064;50.226;14.344;2023-07-08T13:24:10;2.97;;;1.92;;
77111;SDS011;66064;50.226;14.344;2023-07-08T13:26:39;2.78;;;1.98;;
77111;SDS011;66064;50.226;14.344;2023-07-08T13:29:11;3.45;;;2.20;;
77111;SDS011;66064;50.226;14.344;2023-07-08T13:31:43;3.08;;;2.00;;
77111;SDS011;66064;50.226;14.344;2023-07-08T13:34:17;3.08;;;2.10;;
77111;SDS011;66064;50.226;14.344;2023-07-08T13:36:46;6.65;;;2.25;;
77111;SDS011;66064;50.226;14.344;2023-07-08T13:39:19;5.00;;;2.10;;
77111;SDS011;66064;50.226;14.344;2023-07-08T13:41:54;4.35;;;2.05;;
77111;SDS011;66064;50.226;14.344;2023-07-08T13:44:20;2.78;;;1.90;;
77111;SDS011;66064;50.226;14.344;2023-07-08T13:49:19;2.90;;;2.00;;
77111;SDS011;66064;50.226;14.344;2023-07-08T13:51:46;3.22;;;2.20;;
77111;SDS011;66064;50.226;14.344;2023-07-08T13:54:22;3.88;;;1.83;;
77111;SDS011;66064;50.226;14.344;2023-07-08T13:56:51;3.83;;;2.10;;
77111;SDS011;66064;50.226;14.344;2023-07-08T13:59:19;3.55;;;2.10;;
77111;SDS011;66064;50.226;14.344;2023-07-08T14:01:49;2.60;;;1.90;;
77111;SDS011;66064;50.226;14.344;2023-07-08T14:04:20;3.00;;;2.13;;
77111;SDS011;66064;50.226;14.344;2023-07-08T14:06:59;2.88;;;2.08;;
77111;SDS011;66064;50.226;14.344;2023-07-08T14:09:25;3.13;;;2.25;;
77111;SDS011;66064;50.226;14.344;2023-07-08T14:11:52;3.80;;;2.30;;
77111;SDS011;66064;50.226;14.344;2023-07-08T14:14:18;4.72;;;2.03;;
77111;SDS011;66064;50.226;14.344;2023-07-08T14:16:46;4.43;;;2.15;;
77111;SDS011;66064;50.226;14.344;2023-07-08T14:19:15;3.35;;;2.10;;
77111;SDS011;66064;50.226;14.344;2023-07-08T14:21:45;7.05;;;2.30;;
77111;SDS011;66064;50.226;14.344;2023-07-08T14:24:11;6.72;;;1.90;;
77111;SDS011;66064;50.226;14.344;2023-07-08T14:26:41;4.65;;;2.30;;
77111;SDS011;66064;50.226;14.344;2023-07-08T14:29:08;5.32;;;2.38;;
77111;SDS011;66064;50.226;14.344;2023-07-08T14:31:35;6.85;;;2.05;;
77111;SDS011;66064;50.226;14.344;2023-07-08T14:34:05;4.32;;;1.90;;
77111;SDS011;66064;50.226;14.344;2023-07-08T14:36:33;2.65;;;2.00;;
77111;SDS011;66064;50.226;14.344;2023-07-08T14:39:00;4.15;;;2.25;;
77111;SDS011;66064;50.226;14.344;2023-07-08T14:41:27;3.55;;;2.17;;
77111;SDS011;66064;50.226;14.344;2023-07-08T14:43:53;3.05;;;2.17;;
77111;SDS011;66064;50.226;14.344;2023-07-08T14:46:20;3.40;;;2.10;;
77111;SDS011;66064;50.226;14.344;2023-07-08T14:48:46;3.53;;;2.28;;
77111;SDS011;66064;50.226;14.344;2023-07-08T14:51:12;3.47;;;2.17;;
77111;SDS011;66064;50.226;14.344;2023-07-08T14:53:38;3.88;;;2.13;;
77111;SDS011;66064;50.226;14.344;2023-07-08T14:56:06;2.75;;;2.08;;
77111;SDS011;66064;50.226;14.344;2023-07-08T14:58:39;2.47;;;1.88;;
77111;SDS011;66064;50.226;14.344;2023-07-08T15:01:11;5.00;;;2.28;;
77111;SDS011;66064;50.226;14.344;2023-07-08T15:03:42;2.90;;;2.15;;
77111;SDS011;66064;50.226;14.344;2023-07-08T15:06:09;2.90;;;1.80;;
77111;SDS011;66064;50.226;14.344;2023-07-08T15:08:36;3.00;;;1.77;;
77111;SDS011;66064;50.226;14.344;2023-07-08T15:11:03;3.15;;;2.17;;
77111;SDS011;66064;50.226;14.344;2023-07-08T15:13:32;4.93;;;2.30;;
77111;SDS011;66064;50.226;14.344;2023-07-08T15:15:59;2.90;;;1.88;;
77111;SDS011;66064;50.226;14.344;2023-07-08T15:18:24;4.55;;;2.30;;
77111;SDS011;66064;50.226;14.344;2023-07-08T15:20:51;3.35;;;2.35;;
77111;SDS011;66064;50.226;14.344;2023-07-08T15:23:16;3.70;;;2.15;;
77111;SDS011;66064;50.226;14.344;2023-07-08T15:28:14;2.90;;;2.00;;
77111;SDS011;66064;50.226;14.344;2023-07-08T15:30:50;3.03;;;2.00;;
77111;SDS011;66064;50.226;14.344;2023-07-08T15:33:17;3.88;;;2.38;;
77111;SDS011;66064;50.226;14.344;2023-07-08T15:35:43;3.78;;;2.47;;
77111;SDS011;66064;50.226;14.344;2023-07-08T15:38:09;3.90;;;2.05;;
77111;SDS011;66064;50.226;14.344;2023-07-08T15:40:35;2.90;;;2.22;;
77111;SDS011;66064;50.226;14.344;2023-07-08T15:43:04;3.08;;;2.10;;
77111;SDS011;66064;50.226;14.344;2023-07-08T15:45:34;2.60;;;1.95;;
77111;SDS011;66064;50.226;14.344;2023-07-08T15:48:02;3.08;;;2.40;;
77111;SDS011;66064;50.226;14.344;2023-07-08T15:50:29;3.03;;;2.00;;
77111;SDS011;66064;50.226;14.344;2023-07-08T15:52:55;3.55;;;2.38;;
77111;SDS011;66064;50.226;14.344;2023-07-08T15:55:26;3.83;;;2.22;;
77111;SDS011;66064;50.226;14.344;2023-07-08T15:57:56;2.92;;;1.92;;